sensor_id;sensor_type;location;lat;lon;timestamp;P1;durP1;ratioP1;P2;durP2;ratioP2
20649;SDS011;10484;48.736;9.332;2023-05-07T00:00:35;3.27;;;2.53;;
20649;SDS011;10484;48.736;9.332;2023-05-07T00:03:01;2.50;;;2.30;;
20649;SDS011;10484;48.736;9.332;2023-05-07T00:05:26;2.50;;;2.30;;
20649;SDS011;10484;48.736;9.332;2023-05-07T00:07:52;2.20;;;2.00;;
20649;SDS011;10484;48.736;9.332;2023-05-07T00:10:18;2.50;;;2.30;;
20649;SDS011;10484;48.736;9.332;2023-05-07T00:12:43;3.80;;;2.27;;
20649;SDS011;10484;48.736;9.332;2023-05-07T00:15:09;2.67;;;2.47;;
20649;SDS011;10484;48.736;9.332;2023-05-07T00:17:35;3.93;;;2.40;;
20649;SDS011;10484;48.736;9.332;2023-05-07T00:20:02;2.70;;;2.50;;
20649;SDS011;10484;48.736;9.332;2023-05-07T00:22:29;3.00;;;2.10;;
20649;SDS011;10484;48.736;9.332;2023-05-07T00:24:55;2.50;;;2.20;;
20649;SDS011;10484;48.736;9.332;2023-05-07T00:27:21;2.73;;;2.47;;
20649;SDS011;10484;48.736;9.332;2023-05-07T00:29:47;2.77;;;2.57;;
20649;SDS011;10484;48.736;9.332;2023-05-07T00:32:12;2.40;;;2.20;;
20649;SDS011;10484;48.736;9.332;2023-05-07T00:34:38;2.30;;;2.10;;
20649;SDS011;10484;48.736;9.332;2023-05-07T00:37:04;4.30;;;2.13;;
20649;SDS011;10484;48.736;9.332;2023-05-07T00:39:32;4.00;;;2.47;;
20649;SDS011;10484;48.736;9.332;2023-05-07T00:41:58;2.57;;;2.17;;
20649;SDS011;10484;48.736;9.332;2023-05-07T00:44:24;2.60;;;1.90;;
20649;SDS011;10484;48.736;9.332;2023-05-07T00:46:50;2.30;;;2.10;;
20649;SDS011;10484;48.736;9.332;2023-05-07T00:49:16;3.53;;;2.37;;
20649;SDS011;10484;48.736;9.332;2023-05-07T00:51:41;2.93;;;2.20;;
20649;SDS011;10484;48.736;9.332;2023-05-07T00:54:07;2.10;;;2.00;;
20649;SDS011;10484;48.736;9.332;2023-05-07T00:56:34;2.57;;;2.17;;
20649;SDS011;10484;48.736;9.332;2023-05-07T00:59:01;2.27;;;2.03;;
20649;SDS011;10484;48.736;9.332;2023-05-07T01:01:27;2.83;;;2.63;;
20649;SDS011;10484;48.736;9.332;2023-05-07T01:03:53;2.53;;;2.33;;
20649;SDS011;10484;48.736;9.332;2023-05-07T01:06:19;2.30;;;2.10;;
20649;SDS011;10484;48.736;9.332;2023-05-07T01:08:46;2.70;;;2.30;;
20649;SDS011;10484;48.736;9.332;2023-05-07T01:11:15;3.00;;;2.00;;
20649;SDS011;10484;48.736;9.332;2023-05-07T01:13:41;2.30;;;2.10;;
20649;SDS011;10484;48.736;9.332;2023-05-07T01:16:08;2.23;;;2.03;;
20649;SDS011;10484;48.736;9.332;2023-05-07T01:18:34;2.20;;;2.10;;
20649;SDS011;10484;48.736;9.332;2023-05-07T01:21:00;2.17;;;1.83;;
20649;SDS011;10484;48.736;9.332;2023-05-07T01:23:28;2.97;;;2.60;;
20649;SDS011;10484;48.736;9.332;2023-05-07T01:25:55;2.43;;;2.10;;
20649;SDS011;10484;48.736;9.332;2023-05-07T01:28:21;2.53;;;2.33;;
20649;SDS011;10484;48.736;9.332;2023-05-07T01:30:48;2.17;;;1.93;;
20649;SDS011;10484;48.736;9.332;2023-05-07T01:33:18;4.03;;;3.30;;
20649;SDS011;10484;48.736;9.332;2023-05-07T01:35:47;2.60;;;2.37;;
20649;SDS011;10484;48.736;9.332;2023-05-07T01:38:15;3.23;;;2.27;;
20649;SDS011;10484;48.736;9.332;2023-05-07T01:40:41;3.10;;;2.50;;
20649;SDS011;10484;48.736;9.332;2023-05-07T01:43:07;3.07;;;2.40;;
20649;SDS011;10484;48.736;9.332;2023-05-07T01:45:34;2.30;;;2.20;;
20649;SDS011;10484;48.736;9.332;2023-05-07T01:48:01;2.53;;;2.30;;
20649;SDS011;10484;48.736;9.332;2023-05-07T01:50:27;3.03;;;2.73;;
20649;SDS011;10484;48.736;9.332;2023-05-07T01:52:54;2.30;;;2.10;;
20649;SDS011;10484;48.736;9.332;2023-05-07T01:55:20;3.70;;;2.90;;
20649;SDS011;10484;48.736;9.332;2023-05-07T01:57:46;3.50;;;2.93;;
20649;SDS011;10484;48.736;9.332;2023-05-07T02:00:12;2.73;;;2.53;;
20649;SDS011;10484;48.736;9.332;2023-05-07T02:02:38;3.37;;;2.87;;
20649;SDS011;10484;48.736;9.332;2023-05-07T02:05:03;3.20;;;2.40;;
20649;SDS011;10484;48.736;9.332;2023-05-07T02:07:29;5.50;;;2.87;;
20649;SDS011;10484;48.736;9.332;2023-05-07T02:09:55;2.70;;;2.50;;
20649;SDS011;10484;48.736;9.332;2023-05-07T02:12:21;3.40;;;2.50;;
20649;SDS011;10484;48.736;9.332;2023-05-07T02:14:47;3.90;;;2.40;;
20649;SDS011;10484;48.736;9.332;2023-05-07T02:17:13;2.93;;;2.73;;
20649;SDS011;10484;48.736;9.332;2023-05-07T02:19:38;3.80;;;2.20;;
20649;SDS011;10484;48.736;9.332;2023-05-07T02:22:04;2.60;;;2.40;;
20649;SDS011;10484;48.736;9.332;2023-05-07T02:24:30;2.47;;;2.07;;
20649;SDS011;10484;48.736;9.332;2023-05-07T02:26:55;3.60;;;2.60;;
20649;SDS011;10484;48.736;9.332;2023-05-07T02:29:21;2.30;;;2.10;;
20649;SDS011;10484;48.736;9.332;2023-05-07T02:31:46;2.23;;;2.03;;
20649;SDS011;10484;48.736;9.332;2023-05-07T02:34:15;2.50;;;2.20;;
20649;SDS011;10484;48.736;9.332;2023-05-07T02:36:41;5.83;;;2.30;;
20649;SDS011;10484;48.736;9.332;2023-05-07T02:39:07;2.40;;;2.20;;
20649;SDS011;10484;48.736;9.332;2023-05-07T02:41:33;2.57;;;2.37;;
20649;SDS011;10484;48.736;9.332;2023-05-07T02:43:59;2.87;;;2.67;;
20649;SDS011;10484;48.736;9.332;2023-05-07T02:46:24;2.70;;;2.50;;
20649;SDS011;10484;48.736;9.332;2023-05-07T02:48:50;2.77;;;2.40;;
20649;SDS011;10484;48.736;9.332;2023-05-07T02:51:19;2.53;;;1.90;;
20649;SDS011;10484;48.736;9.332;2023-05-07T02:53:45;1.83;;;1.73;;
20649;SDS011;10484;48.736;9.332;2023-05-07T02:56:11;3.00;;;2.80;;
20649;SDS011;10484;48.736;9.332;2023-05-07T02:58:37;2.67;;;2.23;;
20649;SDS011;10484;48.736;9.332;2023-05-07T03:01:04;2.57;;;2.37;;
20649;SDS011;10484;48.736;9.332;2023-05-07T03:03:30;2.53;;;2.33;;
20649;SDS011;10484;48.736;9.332;2023-05-07T03:05:56;2.37;;;2.20;;
20649;SDS011;10484;48.736;9.332;2023-05-07T03:08:21;2.63;;;2.43;;
20649;SDS011;10484;48.736;9.332;2023-05-07T03:10:47;2.20;;;2.00;;
20649;SDS011;10484;48.736;9.332;2023-05-07T03:13:13;2.67;;;2.33;;
20649;SDS011;10484;48.736;9.332;2023-05-07T03:15:39;2.70;;;2.50;;
20649;SDS011;10484;48.736;9.332;2023-05-07T03:18:05;2.53;;;2.30;;
20649;SDS011;10484;48.736;9.332;2023-05-07T03:20:30;2.60;;;2.40;;
20649;SDS011;10484;48.736;9.332;2023-05-07T03:22:56;2.60;;;2.40;;
20649;SDS011;10484;48.736;9.332;2023-05-07T03:25:22;3.00;;;2.57;;
20649;SDS011;10484;48.736;9.332;2023-05-07T03:27:47;3.63;;;2.50;;
20649;SDS011;10484;48.736;9.332;2023-05-07T03:30:13;3.20;;;3.00;;
20649;SDS011;10484;48.736;9.332;2023-05-07T03:32:39;4.00;;;3.20;;
20649;SDS011;10484;48.736;9.332;2023-05-07T03:35:05;2.93;;;2.73;;
20649;SDS011;10484;48.736;9.332;2023-05-07T03:37:31;2.50;;;2.30;;
20649;SDS011;10484;48.736;9.332;2023-05-07T03:39:56;3.07;;;2.80;;
20649;SDS011;10484;48.736;9.332;2023-05-07T03:42:22;3.90;;;2.20;;
20649;SDS011;10484;48.736;9.332;2023-05-07T03:44:48;3.17;;;2.87;;
20649;SDS011;10484;48.736;9.332;2023-05-07T03:47:13;3.50;;;2.80;;
20649;SDS011;10484;48.736;9.332;2023-05-07T03:49:39;2.77;;;2.57;;
20649;SDS011;10484;48.736;9.332;2023-05-07T03:52:05;2.43;;;2.23;;
20649;SDS011;10484;48.736;9.332;2023-05-07T03:54:31;2.80;;;2.60;;
20649;SDS011;10484;48.736;9.332;2023-05-07T03:56:56;2.70;;;2.50;;
20649;SDS011;10484;48.736;9.332;2023-05-07T03:59:22;3.50;;;2.83;;
20649;SDS011;10484;48.736;9.332;2023-05-07T04:01:48;2.50;;;2.30;;
20649;SDS011;10484;48.736;9.332;2023-05-07T04:04:14;2.83;;;2.63;;
20649;SDS011;10484;48.736;9.332;2023-05-07T04:06:39;3.20;;;2.90;;
20649;SDS011;10484;48.736;9.332;2023-05-07T04:09:06;2.60;;;2.40;;
20649;SDS011;10484;48.736;9.332;2023-05-07T04:11:31;3.30;;;2.60;;
20649;SDS011;10484;48.736;9.332;2023-05-07T04:13:57;3.27;;;2.67;;
20649;SDS011;10484;48.736;9.332;2023-05-07T04:16:22;3.40;;;2.63;;
20649;SDS011;10484;48.736;9.332;2023-05-07T04:18:48;2.60;;;2.23;;
20649;SDS011;10484;48.736;9.332;2023-05-07T04:21:14;2.73;;;2.53;;
20649;SDS011;10484;48.736;9.332;2023-05-07T04:23:41;3.47;;;2.60;;
20649;SDS011;10484;48.736;9.332;2023-05-07T04:26:06;3.40;;;2.77;;
20649;SDS011;10484;48.736;9.332;2023-05-07T04:28:32;2.70;;;2.50;;
20649;SDS011;10484;48.736;9.332;2023-05-07T04:30:57;2.33;;;2.13;;
20649;SDS011;10484;48.736;9.332;2023-05-07T04:33:23;3.30;;;2.67;;
20649;SDS011;10484;48.736;9.332;2023-05-07T04:35:49;3.40;;;3.07;;
20649;SDS011;10484;48.736;9.332;2023-05-07T04:38:14;3.17;;;2.87;;
20649;SDS011;10484;48.736;9.332;2023-05-07T04:40:40;3.50;;;2.37;;
20649;SDS011;10484;48.736;9.332;2023-05-07T04:43:06;4.20;;;2.50;;
20649;SDS011;10484;48.736;9.332;2023-05-07T04:45:34;3.67;;;2.83;;
20649;SDS011;10484;48.736;9.332;2023-05-07T04:48:00;2.70;;;2.50;;
20649;SDS011;10484;48.736;9.332;2023-05-07T04:50:25;2.60;;;2.40;;
20649;SDS011;10484;48.736;9.332;2023-05-07T04:52:51;2.60;;;2.30;;
20649;SDS011;10484;48.736;9.332;2023-05-07T04:55:17;3.30;;;2.50;;
20649;SDS011;10484;48.736;9.332;2023-05-07T04:57:42;2.80;;;2.60;;
20649;SDS011;10484;48.736;9.332;2023-05-07T05:00:08;4.30;;;3.00;;
20649;SDS011;10484;48.736;9.332;2023-05-07T05:02:35;2.70;;;2.27;;
20649;SDS011;10484;48.736;9.332;2023-05-07T05:05:00;2.73;;;2.53;;
20649;SDS011;10484;48.736;9.332;2023-05-07T05:07:27;2.60;;;2.50;;
20649;SDS011;10484;48.736;9.332;2023-05-07T05:09:53;2.53;;;2.33;;
20649;SDS011;10484;48.736;9.332;2023-05-07T05:12:19;2.67;;;2.47;;
20649;SDS011;10484;48.736;9.332;2023-05-07T05:14:45;2.53;;;2.33;;
20649;SDS011;10484;48.736;9.332;2023-05-07T05:17:10;2.83;;;2.43;;
20649;SDS011;10484;48.736;9.332;2023-05-07T05:19:36;2.60;;;2.40;;
20649;SDS011;10484;48.736;9.332;2023-05-07T05:22:01;3.30;;;2.50;;
20649;SDS011;10484;48.736;9.332;2023-05-07T05:24:28;2.90;;;2.57;;
20649;SDS011;10484;48.736;9.332;2023-05-07T05:26:55;3.60;;;2.80;;
20649;SDS011;10484;48.736;9.332;2023-05-07T05:29:20;2.47;;;2.27;;
20649;SDS011;10484;48.736;9.332;2023-05-07T05:31:46;2.80;;;2.60;;
20649;SDS011;10484;48.736;9.332;2023-05-07T05:34:12;2.90;;;2.63;;
20649;SDS011;10484;48.736;9.332;2023-05-07T05:36:37;2.80;;;2.60;;
20649;SDS011;10484;48.736;9.332;2023-05-07T05:39:03;3.57;;;3.30;;
20649;SDS011;10484;48.736;9.332;2023-05-07T05:41:29;2.87;;;2.67;;
20649;SDS011;10484;48.736;9.332;2023-05-07T05:43:55;3.10;;;2.47;;
20649;SDS011;10484;48.736;9.332;2023-05-07T05:46:21;3.40;;;3.10;;
20649;SDS011;10484;48.736;9.332;2023-05-07T05:48:46;4.20;;;3.80;;
20649;SDS011;10484;48.736;9.332;2023-05-07T05:51:12;3.67;;;3.37;;
20649;SDS011;10484;48.736;9.332;2023-05-07T05:53:37;3.50;;;3.20;;
20649;SDS011;10484;48.736;9.332;2023-05-07T05:56:03;3.60;;;3.30;;
20649;SDS011;10484;48.736;9.332;2023-05-07T05:58:29;6.90;;;3.57;;
20649;SDS011;10484;48.736;9.332;2023-05-07T06:00:55;5.73;;;3.50;;
20649;SDS011;10484;48.736;9.332;2023-05-07T06:03:21;3.90;;;3.33;;
20649;SDS011;10484;48.736;9.332;2023-05-07T06:05:47;4.60;;;4.20;;
20649;SDS011;10484;48.736;9.332;2023-05-07T06:08:12;3.77;;;3.47;;
20649;SDS011;10484;48.736;9.332;2023-05-07T06:10:38;4.07;;;3.77;;
20649;SDS011;10484;48.736;9.332;2023-05-07T06:13:04;4.63;;;4.23;;
20649;SDS011;10484;48.736;9.332;2023-05-07T06:15:30;4.00;;;3.53;;
20649;SDS011;10484;48.736;9.332;2023-05-07T06:17:55;4.53;;;4.07;;
20649;SDS011;10484;48.736;9.332;2023-05-07T06:20:22;4.47;;;4.17;;
20649;SDS011;10484;48.736;9.332;2023-05-07T06:22:48;4.17;;;3.87;;
20649;SDS011;10484;48.736;9.332;2023-05-07T06:25:14;3.87;;;3.57;;
20649;SDS011;10484;48.736;9.332;2023-05-07T06:27:39;3.57;;;3.07;;
20649;SDS011;10484;48.736;9.332;2023-05-07T06:30:05;3.93;;;3.63;;
20649;SDS011;10484;48.736;9.332;2023-05-07T06:32:32;3.60;;;3.30;;
20649;SDS011;10484;48.736;9.332;2023-05-07T06:34:57;3.70;;;3.40;;
20649;SDS011;10484;48.736;9.332;2023-05-07T06:37:23;3.50;;;3.30;;
20649;SDS011;10484;48.736;9.332;2023-05-07T06:39:49;4.03;;;3.37;;
20649;SDS011;10484;48.736;9.332;2023-05-07T06:42:14;4.03;;;3.73;;
20649;SDS011;10484;48.736;9.332;2023-05-07T06:44:40;3.37;;;3.07;;
20649;SDS011;10484;48.736;9.332;2023-05-07T06:47:05;3.63;;;3.00;;
20649;SDS011;10484;48.736;9.332;2023-05-07T06:49:31;3.27;;;3.07;;
20649;SDS011;10484;48.736;9.332;2023-05-07T06:51:57;3.10;;;2.90;;
20649;SDS011;10484;48.736;9.332;2023-05-07T06:54:23;3.23;;;2.93;;
20649;SDS011;10484;48.736;9.332;2023-05-07T06:56:49;4.23;;;3.27;;
20649;SDS011;10484;48.736;9.332;2023-05-07T06:59:15;3.50;;;3.20;;
20649;SDS011;10484;48.736;9.332;2023-05-07T07:01:41;4.30;;;3.90;;
20649;SDS011;10484;48.736;9.332;2023-05-07T07:04:06;3.50;;;3.20;;
20649;SDS011;10484;48.736;9.332;2023-05-07T07:06:32;5.20;;;3.60;;
20649;SDS011;10484;48.736;9.332;2023-05-07T07:08:58;4.20;;;3.10;;
20649;SDS011;10484;48.736;9.332;2023-05-07T07:11:24;4.87;;;3.60;;
20649;SDS011;10484;48.736;9.332;2023-05-07T07:13:50;3.77;;;3.30;;
20649;SDS011;10484;48.736;9.332;2023-05-07T07:16:16;4.50;;;3.80;;
20649;SDS011;10484;48.736;9.332;2023-05-07T07:18:41;4.20;;;3.80;;
20649;SDS011;10484;48.736;9.332;2023-05-07T07:21:07;3.53;;;3.07;;
20649;SDS011;10484;48.736;9.332;2023-05-07T07:23:33;3.57;;;3.27;;
20649;SDS011;10484;48.736;9.332;2023-05-07T07:25:58;6.13;;;3.33;;
20649;SDS011;10484;48.736;9.332;2023-05-07T07:28:24;2.90;;;2.57;;
20649;SDS011;10484;48.736;9.332;2023-05-07T07:30:49;3.60;;;3.30;;
20649;SDS011;10484;48.736;9.332;2023-05-07T07:33:15;3.87;;;3.50;;
20649;SDS011;10484;48.736;9.332;2023-05-07T07:35:41;6.10;;;4.30;;
20649;SDS011;10484;48.736;9.332;2023-05-07T07:38:07;5.13;;;3.13;;
20649;SDS011;10484;48.736;9.332;2023-05-07T07:40:34;3.53;;;3.23;;
20649;SDS011;10484;48.736;9.332;2023-05-07T07:43:00;3.93;;;3.43;;
20649;SDS011;10484;48.736;9.332;2023-05-07T07:45:26;3.83;;;3.53;;
20649;SDS011;10484;48.736;9.332;2023-05-07T07:47:52;2.93;;;2.63;;
20649;SDS011;10484;48.736;9.332;2023-05-07T07:50:17;4.97;;;3.40;;
20649;SDS011;10484;48.736;9.332;2023-05-07T07:52:43;3.50;;;3.20;;
20649;SDS011;10484;48.736;9.332;2023-05-07T07:55:09;2.90;;;2.70;;
20649;SDS011;10484;48.736;9.332;2023-05-07T07:57:35;7.47;;;3.40;;
20649;SDS011;10484;48.736;9.332;2023-05-07T08:00:01;3.87;;;3.57;;
20649;SDS011;10484;48.736;9.332;2023-05-07T08:02:27;5.70;;;3.20;;
20649;SDS011;10484;48.736;9.332;2023-05-07T08:04:52;3.20;;;3.00;;
20649;SDS011;10484;48.736;9.332;2023-05-07T08:07:18;3.20;;;3.00;;
20649;SDS011;10484;48.736;9.332;2023-05-07T08:09:45;3.20;;;2.90;;
20649;SDS011;10484;48.736;9.332;2023-05-07T08:12:11;3.90;;;3.07;;
20649;SDS011;10484;48.736;9.332;2023-05-07T08:14:37;4.33;;;3.20;;
20649;SDS011;10484;48.736;9.332;2023-05-07T08:17:03;3.50;;;3.20;;
20649;SDS011;10484;48.736;9.332;2023-05-07T08:19:28;5.30;;;3.40;;
20649;SDS011;10484;48.736;9.332;2023-05-07T08:21:54;3.63;;;3.33;;
20649;SDS011;10484;48.736;9.332;2023-05-07T08:24:20;2.77;;;2.57;;
20649;SDS011;10484;48.736;9.332;2023-05-07T08:26:46;3.67;;;3.17;;
20649;SDS011;10484;48.736;9.332;2023-05-07T08:29:11;4.43;;;2.93;;
20649;SDS011;10484;48.736;9.332;2023-05-07T08:31:37;3.17;;;2.97;;
20649;SDS011;10484;48.736;9.332;2023-05-07T08:34:04;3.10;;;2.80;;
20649;SDS011;10484;48.736;9.332;2023-05-07T08:36:30;3.93;;;3.50;;
20649;SDS011;10484;48.736;9.332;2023-05-07T08:38:56;3.10;;;2.90;;
20649;SDS011;10484;48.736;9.332;2023-05-07T08:41:21;4.37;;;3.03;;
20649;SDS011;10484;48.736;9.332;2023-05-07T08:43:48;2.83;;;2.60;;
20649;SDS011;10484;48.736;9.332;2023-05-07T08:46:19;5.23;;;3.33;;
20649;SDS011;10484;48.736;9.332;2023-05-07T08:48:49;3.00;;;2.70;;
20649;SDS011;10484;48.736;9.332;2023-05-07T08:51:16;3.93;;;2.70;;
20649;SDS011;10484;48.736;9.332;2023-05-07T08:53:45;2.90;;;2.70;;
20649;SDS011;10484;48.736;9.332;2023-05-07T08:56:13;4.53;;;2.47;;
20649;SDS011;10484;48.736;9.332;2023-05-07T08:58:40;3.60;;;3.30;;
20649;SDS011;10484;48.736;9.332;2023-05-07T09:01:07;3.50;;;3.17;;
20649;SDS011;10484;48.736;9.332;2023-05-07T09:03:34;2.63;;;2.43;;
20649;SDS011;10484;48.736;9.332;2023-05-07T09:06:02;3.73;;;2.77;;
20649;SDS011;10484;48.736;9.332;2023-05-07T09:08:28;2.70;;;2.50;;
20649;SDS011;10484;48.736;9.332;2023-05-07T09:10:53;3.00;;;2.73;;
20649;SDS011;10484;48.736;9.332;2023-05-07T09:13:19;3.53;;;3.23;;
20649;SDS011;10484;48.736;9.332;2023-05-07T09:15:45;3.17;;;2.97;;
20649;SDS011;10484;48.736;9.332;2023-05-07T09:18:11;2.73;;;2.50;;
20649;SDS011;10484;48.736;9.332;2023-05-07T09:20:37;3.57;;;2.60;;
20649;SDS011;10484;48.736;9.332;2023-05-07T09:23:03;2.20;;;2.10;;
20649;SDS011;10484;48.736;9.332;2023-05-07T09:25:32;4.53;;;3.20;;
20649;SDS011;10484;48.736;9.332;2023-05-07T09:27:59;2.17;;;1.93;;
20649;SDS011;10484;48.736;9.332;2023-05-07T09:30:29;2.60;;;2.20;;
20649;SDS011;10484;48.736;9.332;2023-05-07T09:32:56;2.87;;;2.67;;
20649;SDS011;10484;48.736;9.332;2023-05-07T09:35:23;2.43;;;2.20;;
20649;SDS011;10484;48.736;9.332;2023-05-07T09:37:58;2.27;;;2.07;;
20649;SDS011;10484;48.736;9.332;2023-05-07T09:40:25;2.53;;;2.23;;
20649;SDS011;10484;48.736;9.332;2023-05-07T09:42:52;4.57;;;2.40;;
20649;SDS011;10484;48.736;9.332;2023-05-07T09:45:25;2.50;;;2.40;;
20649;SDS011;10484;48.736;9.332;2023-05-07T09:47:55;2.90;;;2.33;;
20649;SDS011;10484;48.736;9.332;2023-05-07T09:50:26;2.73;;;2.53;;
20649;SDS011;10484;48.736;9.332;2023-05-07T09:52:53;2.40;;;2.20;;
20649;SDS011;10484;48.736;9.332;2023-05-07T09:55:20;2.50;;;2.30;;
20649;SDS011;10484;48.736;9.332;2023-05-07T09:57:47;2.50;;;2.03;;
20649;SDS011;10484;48.736;9.332;2023-05-07T10:00:18;2.43;;;2.23;;
20649;SDS011;10484;48.736;9.332;2023-05-07T10:02:49;2.63;;;2.00;;
20649;SDS011;10484;48.736;9.332;2023-05-07T10:05:17;1.90;;;1.80;;
20649;SDS011;10484;48.736;9.332;2023-05-07T10:07:44;2.63;;;2.00;;
20649;SDS011;10484;48.736;9.332;2023-05-07T10:10:10;2.30;;;2.10;;
20649;SDS011;10484;48.736;9.332;2023-05-07T10:12:37;4.07;;;2.37;;
20649;SDS011;10484;48.736;9.332;2023-05-07T10:15:05;2.30;;;1.87;;
20649;SDS011;10484;48.736;9.332;2023-05-07T10:17:33;2.50;;;2.30;;
20649;SDS011;10484;48.736;9.332;2023-05-07T10:20:04;2.90;;;2.70;;
20649;SDS011;10484;48.736;9.332;2023-05-07T10:22:32;2.57;;;2.37;;
20649;SDS011;10484;48.736;9.332;2023-05-07T10:25:03;3.17;;;2.37;;
20649;SDS011;10484;48.736;9.332;2023-05-07T10:27:31;2.00;;;1.90;;
20649;SDS011;10484;48.736;9.332;2023-05-07T10:32:40;1.73;;;1.63;;
20649;SDS011;10484;48.736;9.332;2023-05-07T10:35:14;1.97;;;1.87;;
20649;SDS011;10484;48.736;9.332;2023-05-07T10:37:45;2.50;;;2.23;;
20649;SDS011;10484;48.736;9.332;2023-05-07T10:40:11;1.77;;;1.67;;
20649;SDS011;10484;48.736;9.332;2023-05-07T10:42:37;2.20;;;2.10;;
20649;SDS011;10484;48.736;9.332;2023-05-07T10:45:15;2.60;;;2.13;;
20649;SDS011;10484;48.736;9.332;2023-05-07T10:50:40;2.43;;;2.00;;
20649;SDS011;10484;48.736;9.332;2023-05-07T10:55:45;2.20;;;2.00;;
20649;SDS011;10484;48.736;9.332;2023-05-07T11:00:46;2.40;;;2.30;;
20649;SDS011;10484;48.736;9.332;2023-05-07T11:03:13;1.67;;;1.50;;
20649;SDS011;10484;48.736;9.332;2023-05-07T11:05:40;1.90;;;1.80;;
20649;SDS011;10484;48.736;9.332;2023-05-07T11:08:06;3.30;;;2.30;;
20649;SDS011;10484;48.736;9.332;2023-05-07T11:13:19;1.80;;;1.70;;
20649;SDS011;10484;48.736;9.332;2023-05-07T11:16:19;1.87;;;1.77;;
20649;SDS011;10484;48.736;9.332;2023-05-07T11:18:51;2.50;;;2.30;;
20649;SDS011;10484;48.736;9.332;2023-05-07T11:21:34;2.27;;;2.07;;
20649;SDS011;10484;48.736;9.332;2023-05-07T11:23:59;1.93;;;1.67;;
20649;SDS011;10484;48.736;9.332;2023-05-07T11:26:27;2.20;;;2.00;;
20649;SDS011;10484;48.736;9.332;2023-05-07T11:28:54;2.80;;;1.90;;
20649;SDS011;10484;48.736;9.332;2023-05-07T11:31:24;2.57;;;2.00;;
20649;SDS011;10484;48.736;9.332;2023-05-07T11:33:51;1.80;;;1.70;;
20649;SDS011;10484;48.736;9.332;2023-05-07T11:36:18;2.20;;;2.00;;
20649;SDS011;10484;48.736;9.332;2023-05-07T11:38:45;2.27;;;1.73;;
20649;SDS011;10484;48.736;9.332;2023-05-07T11:41:11;2.57;;;2.37;;
20649;SDS011;10484;48.736;9.332;2023-05-07T11:43:37;1.87;;;1.77;;
20649;SDS011;10484;48.736;9.332;2023-05-07T11:46:05;1.70;;;1.60;;
20649;SDS011;10484;48.736;9.332;2023-05-07T11:48:33;1.50;;;1.40;;
20649;SDS011;10484;48.736;9.332;2023-05-07T11:51:00;1.37;;;1.27;;
20649;SDS011;10484;48.736;9.332;2023-05-07T11:53:27;1.50;;;1.40;;
20649;SDS011;10484;48.736;9.332;2023-05-07T11:56:05;2.43;;;1.90;;
20649;SDS011;10484;48.736;9.332;2023-05-07T11:58:32;2.07;;;1.90;;
20649;SDS011;10484;48.736;9.332;2023-05-07T12:00:58;2.23;;;1.70;;
20649;SDS011;10484;48.736;9.332;2023-05-07T12:03:23;2.63;;;2.43;;
20649;SDS011;10484;48.736;9.332;2023-05-07T12:05:49;2.10;;;1.80;;
20649;SDS011;10484;48.736;9.332;2023-05-07T12:08:15;1.70;;;1.60;;
20649;SDS011;10484;48.736;9.332;2023-05-07T12:10:44;2.60;;;2.00;;
20649;SDS011;10484;48.736;9.332;2023-05-07T12:15:45;1.80;;;1.70;;
20649;SDS011;10484;48.736;9.332;2023-05-07T12:18:11;1.87;;;1.63;;
20649;SDS011;10484;48.736;9.332;2023-05-07T12:20:37;2.20;;;2.07;;
20649;SDS011;10484;48.736;9.332;2023-05-07T12:23:04;1.93;;;1.60;;
20649;SDS011;10484;48.736;9.332;2023-05-07T12:25:31;1.90;;;1.80;;
20649;SDS011;10484;48.736;9.332;2023-05-07T12:27:57;1.80;;;1.70;;
20649;SDS011;10484;48.736;9.332;2023-05-07T12:30:25;2.03;;;1.70;;
20649;SDS011;10484;48.736;9.332;2023-05-07T12:32:54;1.73;;;1.63;;
20649;SDS011;10484;48.736;9.332;2023-05-07T12:35:30;2.07;;;1.87;;
20649;SDS011;10484;48.736;9.332;2023-05-07T12:38:00;2.10;;;1.90;;
20649;SDS011;10484;48.736;9.332;2023-05-07T12:40:39;3.13;;;1.80;;
20649;SDS011;10484;48.736;9.332;2023-05-07T12:43:19;2.07;;;1.70;;
20649;SDS011;10484;48.736;9.332;2023-05-07T12:45:55;2.40;;;2.20;;
20649;SDS011;10484;48.736;9.332;2023-05-07T12:48:22;5.50;;;1.97;;
20649;SDS011;10484;48.736;9.332;2023-05-07T12:50:52;2.33;;;2.13;;
20649;SDS011;10484;48.736;9.332;2023-05-07T12:53:20;3.23;;;2.00;;
20649;SDS011;10484;48.736;9.332;2023-05-07T12:55:49;1.60;;;1.50;;
20649;SDS011;10484;48.736;9.332;2023-05-07T12:58:20;1.80;;;1.70;;
20649;SDS011;10484;48.736;9.332;2023-05-07T13:00:49;2.03;;;1.83;;
20649;SDS011;10484;48.736;9.332;2023-05-07T13:06:01;2.60;;;1.77;;
20649;SDS011;10484;48.736;9.332;2023-05-07T13:08:31;4.67;;;2.80;;
20649;SDS011;10484;48.736;9.332;2023-05-07T13:11:10;11.93;;;4.97;;
20649;SDS011;10484;48.736;9.332;2023-05-07T13:13:37;8.63;;;4.83;;
20649;SDS011;10484;48.736;9.332;2023-05-07T13:16:06;7.27;;;4.60;;
20649;SDS011;10484;48.736;9.332;2023-05-07T13:18:33;7.77;;;4.30;;
20649;SDS011;10484;48.736;9.332;2023-05-07T13:21:00;7.83;;;3.70;;
20649;SDS011;10484;48.736;9.332;2023-05-07T13:23:26;6.00;;;3.00;;
20649;SDS011;10484;48.736;9.332;2023-05-07T13:25:52;7.17;;;4.00;;
20649;SDS011;10484;48.736;9.332;2023-05-07T13:28:21;4.77;;;3.30;;
20649;SDS011;10484;48.736;9.332;2023-05-07T13:30:51;3.00;;;2.80;;
20649;SDS011;10484;48.736;9.332;2023-05-07T13:33:17;4.03;;;2.70;;
20649;SDS011;10484;48.736;9.332;2023-05-07T13:35:43;4.57;;;2.70;;
20649;SDS011;10484;48.736;9.332;2023-05-07T13:38:09;4.47;;;2.30;;
20649;SDS011;10484;48.736;9.332;2023-05-07T13:40:35;3.00;;;2.30;;
20649;SDS011;10484;48.736;9.332;2023-05-07T13:43:00;3.60;;;1.97;;
20649;SDS011;10484;48.736;9.332;2023-05-07T13:45:29;5.10;;;1.97;;
20649;SDS011;10484;48.736;9.332;2023-05-07T13:47:55;2.97;;;1.50;;
20649;SDS011;10484;48.736;9.332;2023-05-07T13:50:21;1.87;;;1.77;;
20649;SDS011;10484;48.736;9.332;2023-05-07T13:52:47;2.80;;;1.70;;
20649;SDS011;10484;48.736;9.332;2023-05-07T13:55:16;5.20;;;1.60;;
20649;SDS011;10484;48.736;9.332;2023-05-07T13:57:46;3.03;;;2.00;;
20649;SDS011;10484;48.736;9.332;2023-05-07T14:00:12;3.17;;;1.90;;
20649;SDS011;10484;48.736;9.332;2023-05-07T14:02:38;5.70;;;2.07;;
20649;SDS011;10484;48.736;9.332;2023-05-07T14:05:04;3.07;;;1.80;;
20649;SDS011;10484;48.736;9.332;2023-05-07T14:07:30;3.60;;;2.20;;
20649;SDS011;10484;48.736;9.332;2023-05-07T14:09:56;2.07;;;1.87;;
20649;SDS011;10484;48.736;9.332;2023-05-07T14:12:22;1.93;;;1.73;;
20649;SDS011;10484;48.736;9.332;2023-05-07T14:14:48;1.40;;;1.10;;
20649;SDS011;10484;48.736;9.332;2023-05-07T14:17:15;2.53;;;1.23;;
20649;SDS011;10484;48.736;9.332;2023-05-07T14:19:44;2.00;;;1.57;;
20649;SDS011;10484;48.736;9.332;2023-05-07T14:22:09;3.03;;;1.40;;
20649;SDS011;10484;48.736;9.332;2023-05-07T14:24:35;3.60;;;2.00;;
20649;SDS011;10484;48.736;9.332;2023-05-07T14:27:01;2.90;;;1.80;;
20649;SDS011;10484;48.736;9.332;2023-05-07T14:29:27;2.30;;;1.60;;
20649;SDS011;10484;48.736;9.332;2023-05-07T14:31:52;2.40;;;1.70;;
20649;SDS011;10484;48.736;9.332;2023-05-07T14:34:18;3.80;;;2.13;;
20649;SDS011;10484;48.736;9.332;2023-05-07T14:36:44;2.40;;;1.50;;
20649;SDS011;10484;48.736;9.332;2023-05-07T14:39:09;2.30;;;2.00;;
20649;SDS011;10484;48.736;9.332;2023-05-07T14:41:35;2.10;;;1.50;;
20649;SDS011;10484;48.736;9.332;2023-05-07T14:44:00;3.57;;;1.90;;
20649;SDS011;10484;48.736;9.332;2023-05-07T14:46:28;2.07;;;1.90;;
20649;SDS011;10484;48.736;9.332;2023-05-07T14:48:54;3.60;;;1.90;;
20649;SDS011;10484;48.736;9.332;2023-05-07T14:51:21;2.00;;;1.73;;
20649;SDS011;10484;48.736;9.332;2023-05-07T14:53:46;3.27;;;2.43;;
20649;SDS011;10484;48.736;9.332;2023-05-07T14:56:12;3.83;;;2.17;;
20649;SDS011;10484;48.736;9.332;2023-05-07T14:58:37;3.73;;;1.90;;
20649;SDS011;10484;48.736;9.332;2023-05-07T15:01:03;5.33;;;2.30;;
20649;SDS011;10484;48.736;9.332;2023-05-07T15:03:29;4.00;;;2.30;;